createdAt,value
2022-12-16T00:00:40.073Z,5.81
2022-12-16T00:03:07.712Z,6.00
2022-12-16T00:05:42.668Z,5.28
2022-12-16T00:08:11.772Z,5.50
2022-12-16T00:10:53.042Z,5.56
2022-12-16T00:13:22.390Z,5.48
2022-12-16T00:15:49.611Z,5.40
2022-12-16T00:18:20.028Z,5.36
2022-12-16T00:20:47.924Z,5.10
2022-12-16T00:23:15.090Z,5.41
2022-12-16T00:25:43.165Z,5.73
2022-12-16T00:28:10.981Z,5.56
2022-12-16T00:30:38.131Z,6.36
2022-12-16T00:33:05.549Z,6.12
2022-12-16T00:35:33.210Z,6.67
2022-12-16T00:38:00.420Z,6.37
2022-12-16T00:40:27.736Z,6.15
2022-12-16T00:42:55.188Z,5.93
2022-12-16T00:45:22.439Z,5.98
2022-12-16T00:47:49.802Z,5.95
2022-12-16T00:50:17.572Z,6.37
2022-12-16T00:52:44.769Z,6.37
2022-12-16T00:55:12.685Z,5.79
2022-12-16T00:57:40.328Z,6.75
2022-12-16T01:00:09.280Z,6.41
2022-12-16T01:02:36.460Z,6.33
2022-12-16T01:05:04.081Z,6.50
2022-12-16T01:07:31.208Z,6.23
2022-12-16T01:09:58.347Z,6.59
2022-12-16T01:12:25.771Z,6.17
2022-12-16T01:14:52.936Z,5.96
2022-12-16T01:17:20.859Z,5.04
2022-12-16T01:19:48.294Z,4.87
2022-12-16T01:22:15.408Z,5.24
2022-12-16T01:24:43.759Z,4.47
2022-12-16T01:27:11.443Z,5.24
2022-12-16T01:29:38.593Z,4.95
2022-12-16T01:32:06.504Z,5.34
2022-12-16T01:34:33.982Z,5.19
2022-12-16T01:37:01.128Z,4.78
2022-12-16T01:39:30.209Z,4.93
2022-12-16T01:41:57.637Z,5.12
2022-12-16T01:44:26.273Z,5.01
2022-12-16T01:46:57.716Z,4.55
2022-12-16T01:49:29.123Z,4.66
2022-12-16T01:51:57.606Z,4.70
2022-12-16T01:54:35.551Z,4.31
2022-12-16T01:57:06.959Z,4.23
2022-12-16T01:59:34.371Z,4.25
2022-12-16T02:02:01.614Z,4.71
2022-12-16T02:04:29.210Z,4.77
2022-12-16T02:06:56.783Z,5.29
2022-12-16T02:09:23.893Z,4.40
2022-12-16T02:11:53.787Z,4.72
2022-12-16T02:14:41.597Z,4.38
2022-12-16T02:17:16.943Z,4.22
2022-12-16T02:19:44.378Z,4.14
2022-12-16T02:22:25.971Z,3.93
2022-12-16T02:25:12.189Z,4.72
2022-12-16T02:27:57.909Z,4.69
2022-12-16T02:30:39.210Z,4.99
2022-12-16T02:33:09.206Z,4.73
2022-12-16T02:35:40.348Z,4.72
2022-12-16T02:38:12.237Z,4.25
2022-12-16T02:40:39.628Z,4.75
2022-12-16T02:43:11.587Z,4.90
2022-12-16T02:45:38.797Z,5.30
2022-12-16T02:48:06.232Z,5.02
2022-12-16T02:50:35.265Z,5.23
2022-12-16T02:53:02.464Z,4.81
2022-12-16T02:55:33.247Z,4.50
2022-12-16T02:58:19.263Z,5.17
2022-12-16T03:00:50.039Z,5.37
2022-12-16T03:03:21.263Z,4.78
2022-12-16T03:05:49.213Z,4.95
2022-12-16T03:08:21.326Z,4.39
2022-12-16T03:10:53.233Z,4.53
2022-12-16T03:13:22.759Z,4.35
2022-12-16T03:15:50.267Z,4.48
2022-12-16T03:18:17.501Z,4.19
2022-12-16T03:20:50.343Z,4.22
2022-12-16T03:23:19.940Z,3.93
2022-12-16T03:25:47.707Z,4.84
2022-12-16T03:28:17.980Z,4.44
2022-12-16T03:30:46.273Z,4.49
2022-12-16T03:33:19.268Z,4.56
2022-12-16T03:35:50.896Z,4.57
2022-12-16T03:38:18.027Z,4.93
2022-12-16T03:40:45.191Z,5.31
2022-12-16T03:43:14.853Z,5.11
2022-12-16T03:45:42.970Z,4.81
2022-12-16T03:48:10.625Z,4.75
2022-12-16T03:50:38.692Z,4.94
2022-12-16T03:53:06.111Z,5.36
2022-12-16T03:55:33.258Z,5.33
2022-12-16T03:58:00.669Z,5.53
2022-12-16T04:00:27.874Z,5.29
2022-12-16T04:02:55.458Z,5.39
2022-12-16T04:05:22.913Z,5.78
2022-12-16T04:07:50.127Z,5.40
2022-12-16T04:10:37.631Z,5.47
2022-12-16T04:13:23.611Z,5.46
2022-12-16T04:16:09.667Z,5.91
2022-12-16T04:18:55.297Z,6.14
2022-12-16T04:21:41.502Z,5.64
2022-12-16T04:24:20.987Z,5.56
2022-12-16T04:27:11.892Z,5.41
2022-12-16T04:30:01.261Z,5.02
2022-12-16T04:32:48.799Z,6.58
2022-12-16T04:35:34.778Z,6.07
2022-12-16T04:38:21.087Z,6.63
2022-12-16T04:41:06.687Z,7.18
2022-12-16T04:43:53.023Z,7.03
2022-12-16T04:46:38.972Z,7.93
2022-12-16T04:49:25.195Z,8.46
2022-12-16T04:52:10.893Z,7.68
2022-12-16T04:54:56.936Z,6.67
2022-12-16T04:57:42.817Z,6.85
2022-12-16T05:00:28.945Z,7.91
2022-12-16T05:03:15.338Z,7.37
2022-12-16T05:06:01.190Z,6.78
2022-12-16T05:08:46.900Z,6.67
2022-12-16T05:11:32.983Z,6.67
2022-12-16T05:14:18.950Z,7.40
2022-12-16T05:17:05.144Z,6.07
2022-12-16T05:19:50.816Z,6.85
2022-12-16T05:22:36.926Z,6.08
2022-12-16T05:25:23.114Z,6.38
2022-12-16T05:28:09.997Z,6.39
2022-12-16T05:30:56.408Z,7.10
2022-12-16T05:33:42.558Z,6.67
2022-12-16T05:36:28.483Z,6.57
2022-12-16T05:39:14.848Z,6.07
2022-12-16T05:42:00.436Z,6.11
2022-12-16T05:44:46.660Z,6.28
2022-12-16T05:47:35.352Z,6.63
2022-12-16T05:50:26.313Z,7.13
2022-12-16T05:53:26.652Z,6.78
2022-12-16T05:56:12.870Z,7.40
2022-12-16T05:58:58.724Z,6.91
2022-12-16T06:01:44.651Z,7.45
2022-12-16T06:04:30.978Z,7.52
2022-12-16T06:07:16.769Z,6.77
2022-12-16T06:10:02.876Z,7.19
2022-12-16T06:12:48.902Z,6.67
2022-12-16T06:15:35.056Z,7.00
2022-12-16T06:18:20.923Z,6.90
2022-12-16T06:21:07.003Z,6.50
2022-12-16T06:23:52.920Z,7.21
2022-12-16T06:26:38.703Z,7.11
2022-12-16T06:29:24.497Z,7.23
2022-12-16T06:32:10.791Z,8.15
2022-12-16T06:34:56.820Z,7.54
2022-12-16T06:37:42.909Z,7.26
2022-12-16T06:40:29.451Z,7.99
2022-12-16T06:43:15.729Z,8.79
2022-12-16T06:46:01.790Z,8.21
2022-12-16T06:48:47.918Z,7.38
2022-12-16T06:51:50.338Z,8.33
2022-12-16T06:54:36.147Z,7.51
2022-12-16T06:57:21.918Z,7.54
2022-12-16T07:00:08.028Z,8.56
2022-12-16T07:02:54.517Z,9.39
2022-12-16T07:05:40.570Z,8.97
2022-12-16T07:08:26.426Z,9.58
2022-12-16T07:11:17.237Z,10.21
2022-12-16T07:14:03.334Z,8.76
2022-12-16T07:16:49.483Z,9.49
2022-12-16T07:19:35.495Z,9.44
2022-12-16T07:22:21.569Z,9.53
2022-12-16T07:25:07.370Z,9.08
2022-12-16T07:27:53.603Z,9.35
2022-12-16T07:30:39.195Z,9.19
2022-12-16T07:33:25.045Z,8.80
2022-12-16T07:36:10.937Z,9.63
2022-12-16T07:38:56.887Z,8.81
2022-12-16T07:41:42.779Z,9.25
2022-12-16T07:44:29.242Z,10.13
2022-12-16T07:47:15.086Z,9.23
2022-12-16T07:50:01.090Z,9.53
2022-12-16T07:52:46.999Z,9.82
2022-12-16T07:55:33.292Z,10.80
2022-12-16T07:58:18.955Z,10.19
2022-12-16T08:01:09.443Z,9.80
2022-12-16T08:03:56.102Z,10.58
2022-12-16T08:06:41.995Z,10.65
2022-12-16T08:09:28.500Z,11.13
2022-12-16T08:12:14.094Z,11.60
2022-12-16T08:15:00.488Z,11.45
2022-12-16T08:17:46.331Z,10.63
2022-12-16T08:20:32.187Z,10.64
2022-12-16T08:23:18.276Z,10.98
2022-12-16T08:26:04.222Z,10.22
2022-12-16T08:28:49.888Z,11.54
2022-12-16T08:31:36.209Z,11.48
2022-12-16T08:34:22.037Z,9.59
2022-12-16T08:37:08.204Z,10.20
2022-12-16T08:43:00.667Z,9.57
2022-12-16T08:45:46.857Z,10.49
2022-12-16T08:48:33.112Z,10.37
2022-12-16T08:51:22.354Z,10.51
2022-12-16T08:54:08.251Z,10.69
2022-12-16T08:56:54.232Z,11.34
2022-12-16T08:59:41.774Z,11.65
2022-12-16T09:02:29.296Z,11.37
2022-12-16T09:05:15.915Z,11.77
2022-12-16T09:08:01.582Z,12.25
2022-12-16T09:10:47.495Z,12.32
2022-12-16T09:13:34.376Z,12.80
2022-12-16T09:16:20.702Z,12.35
2022-12-16T09:19:06.414Z,12.33
2022-12-16T09:21:52.624Z,12.93
2022-12-16T09:24:40.639Z,13.30
2022-12-16T09:27:26.915Z,12.94
2022-12-16T09:30:12.985Z,13.14
2022-12-16T09:33:02.536Z,13.08
2022-12-16T09:35:48.402Z,12.97
2022-12-16T09:38:34.712Z,13.00
2022-12-16T09:41:43.117Z,13.11
2022-12-16T09:44:35.156Z,13.12
2022-12-16T09:47:24.259Z,13.29
2022-12-16T09:50:10.827Z,13.06
2022-12-16T09:53:00.823Z,12.75
2022-12-16T09:55:51.539Z,12.93
2022-12-16T09:58:37.455Z,12.32
2022-12-16T10:01:23.725Z,12.83
2022-12-16T10:04:10.052Z,12.83
2022-12-16T10:07:10.220Z,13.08
2022-12-16T10:10:03.213Z,12.71
2022-12-16T10:12:51.678Z,13.01
2022-12-16T10:16:01.956Z,12.36
2022-12-16T10:19:11.191Z,11.80
2022-12-16T10:22:04.761Z,12.66
2022-12-16T10:25:00.353Z,12.12
2022-12-16T10:27:53.064Z,12.27
2022-12-16T10:30:39.152Z,12.73
2022-12-16T10:33:26.870Z,12.27
2022-12-16T10:36:12.860Z,12.79
2022-12-16T10:39:03.148Z,11.27
2022-12-16T10:41:51.606Z,11.22
2022-12-16T10:44:55.774Z,12.39
2022-12-16T10:47:41.407Z,11.55
2022-12-16T10:50:31.170Z,12.51
2022-12-16T10:53:46.188Z,11.83
2022-12-16T10:56:35.094Z,11.92
2022-12-16T10:59:22.396Z,10.78
2022-12-16T11:02:18.997Z,11.84
2022-12-16T11:05:05.343Z,11.51
2022-12-16T11:08:04.142Z,11.96
2022-12-16T11:10:53.010Z,10.82
2022-12-16T11:13:42.034Z,11.63
2022-12-16T11:16:44.642Z,11.77
2022-12-16T11:19:41.920Z,11.38
2022-12-16T11:22:34.112Z,11.79
2022-12-16T11:25:29.396Z,12.14
2022-12-16T11:28:25.530Z,11.71
2022-12-16T11:31:12.206Z,11.51
2022-12-16T11:33:58.391Z,10.29
2022-12-16T11:36:44.595Z,10.24
2022-12-16T11:39:32.505Z,11.10
2022-12-16T11:42:19.789Z,11.25
2022-12-16T11:45:10.025Z,11.99
2022-12-16T11:47:56.596Z,12.35
2022-12-16T11:50:42.919Z,11.83
2022-12-16T11:53:48.191Z,11.86
2022-12-16T11:56:35.231Z,11.66
2022-12-16T11:59:22.977Z,11.31
2022-12-16T12:02:16.771Z,11.93
2022-12-16T12:05:03.041Z,12.69
2022-12-16T12:07:55.446Z,11.28
2022-12-16T12:10:41.933Z,11.21
2022-12-16T12:13:47.256Z,11.40
2022-12-16T12:16:59.641Z,11.72
2022-12-16T12:20:08.521Z,10.48
2022-12-16T12:22:55.909Z,10.69
2022-12-16T12:25:45.107Z,10.03
2022-12-16T12:28:36.086Z,9.98
2022-12-16T12:31:28.356Z,10.30
2022-12-16T12:34:14.698Z,10.32
2022-12-16T12:37:01.213Z,10.58
2022-12-16T12:40:02.712Z,9.70
2022-12-16T12:42:54.931Z,9.72
2022-12-16T12:45:46.686Z,9.59
2022-12-16T12:48:40.695Z,10.00
2022-12-16T12:51:53.481Z,10.72
2022-12-16T12:54:51.433Z,10.58
2022-12-16T12:57:39.511Z,10.90
2022-12-16T13:00:28.547Z,11.27
2022-12-16T13:03:34.053Z,10.98
2022-12-16T13:06:20.378Z,10.97
2022-12-16T13:09:09.621Z,11.34
2022-12-16T13:11:56.017Z,11.78
2022-12-16T13:14:51.811Z,12.25
2022-12-16T13:17:39.865Z,10.67
2022-12-16T13:20:44.833Z,11.60
2022-12-16T13:23:49.720Z,11.74
2022-12-16T13:26:36.418Z,10.11
2022-12-16T13:29:48.681Z,10.56
2022-12-16T13:32:39.197Z,11.05
2022-12-16T13:35:28.324Z,11.35
2022-12-16T13:38:14.700Z,11.11
2022-12-16T13:41:08.378Z,11.28
2022-12-16T13:44:03.676Z,11.56
2022-12-16T13:47:01.906Z,12.13
2022-12-16T13:49:54.179Z,12.54
2022-12-16T13:52:59.042Z,12.66
2022-12-16T13:55:48.474Z,12.54
2022-12-16T13:58:40.401Z,12.65
2022-12-16T14:01:30.827Z,12.05
2022-12-16T14:04:17.115Z,10.64
2022-12-16T14:07:03.016Z,10.80
2022-12-16T14:09:49.121Z,11.14
2022-12-16T14:12:49.242Z,10.63
2022-12-16T14:15:43.050Z,11.08
2022-12-16T14:18:43.912Z,10.90
2022-12-16T14:21:31.658Z,12.05
2022-12-16T14:24:26.800Z,11.75
2022-12-16T14:27:13.076Z,11.55
2022-12-16T14:30:12.551Z,11.88
2022-12-16T14:32:58.716Z,10.68
2022-12-16T14:35:45.652Z,11.14
2022-12-16T14:38:40.620Z,11.70
2022-12-16T14:41:30.111Z,12.25
2022-12-16T14:44:16.583Z,12.70
2022-12-16T14:47:02.423Z,12.45
2022-12-16T14:49:48.667Z,12.13
2022-12-16T14:52:38.501Z,12.23
2022-12-16T14:55:35.000Z,12.13
2022-12-16T14:58:39.327Z,12.76
2022-12-16T15:01:33.193Z,12.29
2022-12-16T15:04:19.186Z,11.87
2022-12-16T15:07:06.565Z,12.30
2022-12-16T15:09:53.078Z,11.58
2022-12-16T15:12:42.502Z,12.09
2022-12-16T15:15:32.174Z,12.16
2022-12-16T15:18:18.250Z,10.85
2022-12-16T15:21:13.487Z,11.52
2022-12-16T15:24:00.299Z,10.91
2022-12-16T15:26:47.162Z,10.78
2022-12-16T15:29:51.532Z,10.39
2022-12-16T15:32:43.470Z,10.60
2022-12-16T15:35:30.123Z,10.59
2022-12-16T15:38:26.275Z,10.39
2022-12-16T15:41:12.357Z,9.68
2022-12-16T15:43:58.789Z,10.85
2022-12-16T15:46:48.329Z,11.24
2022-12-16T15:49:37.403Z,9.98
2022-12-16T15:52:39.877Z,9.48
2022-12-16T15:55:41.265Z,9.25
2022-12-16T15:58:32.232Z,9.21
2022-12-16T16:01:18.455Z,10.06
2022-12-16T16:04:08.933Z,9.80
2022-12-16T16:06:55.021Z,9.50
2022-12-16T16:09:48.330Z,8.93
2022-12-16T16:12:34.825Z,9.69
2022-12-16T16:15:20.953Z,10.10
2022-12-16T16:18:12.907Z,10.65
2022-12-16T16:21:04.169Z,10.46
2022-12-16T16:23:50.051Z,9.12
2022-12-16T16:26:36.760Z,9.95
2022-12-16T16:29:22.685Z,9.93
2022-12-16T16:32:09.025Z,9.00
2022-12-16T16:34:55.246Z,8.53
2022-12-16T16:37:41.179Z,9.40
2022-12-16T16:40:33.647Z,9.55
2022-12-16T16:43:19.790Z,9.44
2022-12-16T16:46:11.320Z,9.59
2022-12-16T16:48:59.220Z,8.75
2022-12-16T16:51:46.108Z,8.38
2022-12-16T16:54:32.090Z,8.81
2022-12-16T16:57:21.216Z,8.65
2022-12-16T17:00:07.641Z,9.05
2022-12-16T17:02:53.873Z,8.39
2022-12-16T17:05:39.970Z,8.98
2022-12-16T17:08:25.869Z,9.81
2022-12-16T17:11:11.984Z,8.51
2022-12-16T17:13:58.005Z,7.93
2022-12-16T17:16:43.874Z,9.21
2022-12-16T17:19:29.570Z,9.27
2022-12-16T17:22:15.685Z,8.15
2022-12-16T17:25:01.604Z,8.80
2022-12-16T17:27:47.819Z,8.62
2022-12-16T17:30:43.318Z,8.63
2022-12-16T17:33:33.775Z,8.23
2022-12-16T17:36:20.158Z,7.87
2022-12-16T17:39:06.620Z,8.58
2022-12-16T17:41:53.264Z,8.32
2022-12-16T17:44:39.845Z,8.29
2022-12-16T17:47:25.824Z,8.89
2022-12-16T17:50:12.356Z,8.63
2022-12-16T17:52:58.039Z,8.85
2022-12-16T17:55:44.032Z,8.42
2022-12-16T17:58:31.082Z,8.47
2022-12-16T18:01:20.811Z,8.00
2022-12-16T18:04:07.243Z,8.13
2022-12-16T18:06:53.522Z,8.79
2022-12-16T18:09:39.662Z,8.49
2022-12-16T18:12:25.540Z,8.35
2022-12-16T18:15:12.032Z,8.46
2022-12-16T18:17:57.836Z,7.39
2022-12-16T18:20:44.096Z,7.61
2022-12-16T18:23:29.794Z,7.61
2022-12-16T18:26:16.752Z,8.10
2022-12-16T18:29:02.987Z,8.76
2022-12-16T18:31:49.975Z,8.08
2022-12-16T18:34:36.190Z,7.93
2022-12-16T18:37:22.576Z,9.10
2022-12-16T18:40:08.566Z,9.05
2022-12-16T18:42:54.894Z,8.48
2022-12-16T18:45:40.890Z,8.76
2022-12-16T18:48:28.892Z,9.11
2022-12-16T18:51:15.735Z,7.41
2022-12-16T18:54:02.076Z,8.05
2022-12-16T18:56:48.592Z,8.69
2022-12-16T18:59:35.553Z,8.23
2022-12-16T19:02:22.002Z,8.02
2022-12-16T19:05:09.231Z,8.07
2022-12-16T19:07:55.585Z,7.80
2022-12-16T19:10:42.428Z,8.16
2022-12-16T19:13:31.368Z,8.76
2022-12-16T19:16:17.672Z,8.04
2022-12-16T19:19:03.464Z,8.30
2022-12-16T19:21:56.260Z,8.50
2022-12-16T19:24:43.175Z,8.61
2022-12-16T19:27:29.698Z,7.77
2022-12-16T19:30:15.936Z,8.50
2022-12-16T19:33:05.149Z,8.20
2022-12-16T19:35:53.704Z,7.88
2022-12-16T19:38:39.772Z,8.34
2022-12-16T19:41:29.770Z,7.69
2022-12-16T19:44:16.433Z,7.66
2022-12-16T19:47:04.189Z,6.90
2022-12-16T19:49:50.127Z,8.37
2022-12-16T19:52:35.969Z,8.14
2022-12-16T19:55:22.221Z,7.94
2022-12-16T19:58:08.529Z,8.17
2022-12-16T20:00:56.029Z,8.57
2022-12-16T20:03:42.981Z,8.28
2022-12-16T20:06:29.038Z,7.89
2022-12-16T20:09:15.282Z,8.86
2022-12-16T20:12:01.441Z,7.73
2022-12-16T20:14:48.563Z,7.06
2022-12-16T20:17:34.932Z,6.73
2022-12-16T20:20:24.493Z,7.07
2022-12-16T20:23:10.562Z,6.85
2022-12-16T20:25:56.949Z,6.97
2022-12-16T20:28:43.117Z,6.71
2022-12-16T20:31:29.186Z,6.46
2022-12-16T20:34:15.800Z,6.54
2022-12-16T20:37:03.022Z,6.85
2022-12-16T20:39:56.193Z,7.56
2022-12-16T20:42:47.054Z,7.04
2022-12-16T20:45:33.769Z,7.06
2022-12-16T20:48:23.565Z,5.95
2022-12-16T20:51:21.046Z,6.84
2022-12-16T20:54:10.696Z,6.82
2022-12-16T20:56:56.489Z,5.89
2022-12-16T20:59:42.705Z,6.29
2022-12-16T21:02:33.653Z,6.33
2022-12-16T21:05:20.998Z,6.75
2022-12-16T21:08:07.194Z,6.88
2022-12-16T21:13:59.060Z,5.58
2022-12-16T21:16:46.741Z,6.63
2022-12-16T21:19:33.844Z,5.76
2022-12-16T21:22:20.317Z,5.65
2022-12-16T21:25:06.445Z,5.82
2022-12-16T21:27:52.759Z,6.26
2022-12-16T21:30:38.632Z,5.40
2022-12-16T21:33:24.871Z,6.40
2022-12-16T21:36:11.092Z,6.65
2022-12-16T21:38:57.307Z,5.67
2022-12-16T21:41:43.307Z,6.24
2022-12-16T21:44:29.296Z,6.97
2022-12-16T21:47:15.109Z,5.74
2022-12-16T21:50:01.513Z,6.45
2022-12-16T21:52:46.907Z,6.94
2022-12-16T21:55:33.129Z,6.76
2022-12-16T21:58:19.036Z,6.33
2022-12-16T22:01:12.180Z,6.69
2022-12-16T22:03:58.297Z,6.79
2022-12-16T22:06:48.415Z,6.42
2022-12-16T22:09:35.352Z,6.78
2022-12-16T22:12:21.294Z,5.85
2022-12-16T22:15:07.151Z,5.19
2022-12-16T22:17:57.978Z,5.90
2022-12-16T22:20:44.674Z,5.70
2022-12-16T22:23:30.248Z,6.25
2022-12-16T22:26:17.104Z,5.91
2022-12-16T22:29:03.032Z,6.18
2022-12-16T22:31:49.288Z,5.96
2022-12-16T22:34:35.209Z,5.89
2022-12-16T22:37:21.396Z,4.84
2022-12-16T22:40:07.214Z,5.29
2022-12-16T22:42:53.620Z,5.61
2022-12-16T22:45:42.187Z,6.60
2022-12-16T22:48:29.793Z,6.52
2022-12-16T22:51:15.463Z,5.83
2022-12-16T22:54:01.529Z,5.78
2022-12-16T22:56:56.513Z,5.20
2022-12-16T22:59:42.412Z,5.27
2022-12-16T23:02:28.174Z,6.19
2022-12-16T23:05:14.323Z,6.16
2022-12-16T23:08:00.155Z,5.63
2022-12-16T23:10:46.483Z,6.06
2022-12-16T23:13:32.394Z,5.25
2022-12-16T23:16:18.206Z,5.75
2022-12-16T23:19:03.869Z,5.85
2022-12-16T23:21:49.945Z,6.30
2022-12-16T23:24:35.997Z,5.22
2022-12-16T23:27:22.185Z,5.07
2022-12-16T23:30:07.873Z,5.70
2022-12-16T23:32:54.119Z,5.78
2022-12-16T23:35:42.448Z,5.25
2022-12-16T23:38:28.790Z,6.21
2022-12-16T23:41:15.178Z,6.09
2022-12-16T23:44:01.111Z,5.59
2022-12-16T23:46:48.200Z,4.68
2022-12-16T23:49:34.325Z,4.38
2022-12-16T23:52:20.135Z,4.61
2022-12-16T23:55:06.296Z,3.96
2022-12-16T23:57:52.287Z,4.20
